Time;durP1;ratioP1;P1;durP2;ratioP2;P2;SDS_P1;SDS_P2;PMS_P1;PMS_P2;Temp;Humidity;BMP_temperature;BMP_pressure;BME280_temperature;BME280_humidity;BME280_pressure;Samples;Min_cycle;Max_cycle;Signal;HPM_P1;HPM_P2
2023/06/03 09:52:41;;;;;;;7.60;5.55;;;;;;;31.79;37.25;98369.59;5099739;27;20405;-60
2023/06/03 09:55:11;;;;;;;7.07;5.00;;;;;;;33.09;36.33;98367.25;5082774;28;20020;-60
2023/06/03 09:57:37;;;;;;;7.50;5.03;;;;;;;32.92;36.66;98367.03;5063378;28;20712;-59
2023/06/03 10:00:25;;;;;;;7.45;4.50;;;;;;;33.28;35.38;98359.09;5084747;28;20024;-60
2023/06/03 10:03:06;;;;;;;8.23;5.13;;;;;;;32.64;36.39;98353.56;5070107;27;20043;-64
2023/06/03 10:05:31;;;;;;;6.65;4.45;;;;;;;32.30;37.19;98351.13;5087013;28;21474;-61
2023/06/03 10:08:00;;;;;;;6.72;4.97;;;;;;;32.08;37.56;98347.16;5090490;28;20031;-60
2023/06/03 10:10:26;;;;;;;7.97;5.00;;;;;;;31.58;38.08;98349.44;5082536;28;20478;-61
2023/06/03 10:12:53;;;;;;;6.78;4.70;;;;;;;31.77;37.91;98350.28;5083899;28;20028;-61
2023/06/03 10:15:37;;;;;;;7.03;4.72;;;;;;;31.92;37.80;98354.63;5091221;28;20020;-62
2023/06/03 10:18:06;;;;;;;6.63;4.70;;;;;;;32.54;36.46;98349.09;5084066;28;20020;-61
2023/06/03 10:20:36;;;;;;;7.45;4.65;;;;;;;32.38;36.89;98329.75;5084129;28;20030;-61
2023/06/03 10:24:01;;;;;;;6.80;4.55;;;;;;;-145.70;100.00;63560.63;5076748;28;20020;-61
2023/06/03 10:27:27;;;;;;;7.13;4.90;;;;;;;-145.70;100.00;63560.63;5083370;28;20035;-59
2023/06/03 10:30:51;;;;;;;6.57;4.32;;;;;;;-145.70;100.00;63560.63;5067963;28;20034;-61
2023/06/03 10:34:16;;;;;;;7.05;4.75;;;;;;;-145.70;100.00;63560.63;5071613;28;20111;-60
2023/06/03 10:37:43;;;;;;;7.13;4.72;;;;;;;-145.70;100.00;63560.63;5082112;28;20362;-61
2023/06/03 10:41:09;;;;;;;7.78;5.35;;;;;;;-145.70;100.00;63560.63;5095540;28;20110;-62
2023/06/03 10:44:33;;;;;;;7.28;4.88;;;;;;;-145.70;100.00;63560.63;5086242;28;20024;-62
2023/06/03 10:48:08;;;;;;;8.18;5.72;;;;;;;-145.70;100.00;63560.63;5076731;28;20031;-61
2023/06/03 10:51:47;;;;;;;7.95;5.10;;;;;;;-145.70;100.00;63560.63;5087898;28;20040;-61
2023/06/03 10:55:02;;;;;;;;;;;;;;;-145.70;100.00;63560.63;5097971;27;20078;-60
2023/06/03 10:57:37;;;;;;;8.57;5.80;;;;;;;-145.70;100.00;63560.63;5090366;28;19908;-61
2023/06/03 11:01:06;;;;;;;7.88;5.60;;;;;;;-145.70;100.00;63560.63;5059565;28;20047;-61
2023/06/03 11:04:31;;;;;;;;;;;;;;;-145.70;100.00;63560.63;5043394;28;20034;-62
2023/06/03 11:07:55;;;;;;;7.90;4.78;;;;;;;-145.70;100.00;63560.63;5066566;28;19912;-65
2023/06/03 11:11:44;;;;;;;7.13;5.18;;;;;;;-145.70;100.00;63560.63;5078899;28;20028;-66
2023/06/03 11:15:09;;;;;;;7.03;4.93;;;;;;;-145.70;100.00;63560.63;5060980;28;20032;-60
2023/06/03 11:18:33;;;;;;;8.10;5.22;;;;;;;-145.70;100.00;63560.63;5075918;27;20576;-62
2023/06/03 11:22:00;;;;;;;7.00;5.00;;;;;;;-145.70;100.00;63560.63;5047110;28;20027;-63
2023/06/03 11:25:38;;;;;;;6.68;4.45;;;;;;;-145.70;100.00;63560.63;5055722;28;20035;-63
2023/06/03 11:29:41;;;;;;;6.40;4.83;;;;;;;-145.70;100.00;63560.63;5060696;28;20098;-63
2023/06/03 11:33:14;;;;;;;6.90;4.45;;;;;;;-145.70;100.00;63560.63;5054532;28;20036;-60
2023/06/03 11:36:50;;;;;;;6.88;4.13;;;;;;;-145.70;100.00;63560.63;5063496;28;20038;-61
2023/06/03 11:40:17;;;;;;;6.70;4.10;;;;;;;-145.70;100.00;63560.63;5067200;28;20024;-61
2023/06/03 11:42:49;;;;;;;7.88;4.80;;;;;;;33.08;35.55;98309.09;5082173;28;20090;-60
2023/06/03 11:45:21;;;;;;;10.43;4.57;;;;;;;33.00;36.17;98322.47;5063164;28;20035;-60
2023/06/03 11:47:51;;;;;;;7.43;4.60;;;;;;;-145.70;100.00;63560.63;5074599;28;20028;-60
2023/06/03 11:50:17;;;;;;;6.43;4.18;;;;;;;33.35;34.79;98306.72;5050373;28;20016;-62
2023/06/03 11:52:44;;;;;;;7.50;3.78;;;;;;;33.49;33.67;98319.03;5065242;28;20047;-60
2023/06/03 11:55:13;;;;;;;5.75;3.58;;;;;;;33.79;33.27;98303.34;5067342;28;20082;-60
2023/06/03 11:57:38;;;;;;;6.20;3.87;;;;;;;33.63;34.09;98299.38;5065871;28;20028;-60
2023/06/03 12:00:10;;;;;;;5.32;3.67;;;;;;;33.81;33.74;98298.44;5049260;28;20046;-61
2023/06/03 16:02:03;;;;;;;6.50;3.65;;;;;;;-145.70;100.00;63560.63;4260031;28;20082;-62
2023/06/03 16:04:34;;;;;;;5.85;3.50;;;;;;;-145.70;100.00;63560.63;5057963;28;20887;-62
2023/06/03 16:07:02;;;;;;;6.03;3.80;;;;;;;-145.70;100.00;63560.63;5031591;28;20020;-63
2023/06/03 16:09:30;;;;;;;6.68;3.50;;;;;;;-145.70;100.00;63560.63;5048494;28;20172;-61
2023/06/03 16:11:56;;;;;;;6.68;3.50;;;;;;;-145.70;100.00;63560.63;5054501;28;20147;-61
2023/06/03 16:14:21;;;;;;;6.38;3.78;;;;;;;-145.70;100.00;63560.63;5035884;28;20028;-62
2023/06/03 16:16:46;;;;;;;6.45;3.72;;;;;;;-145.70;100.00;63560.63;5073488;28;20032;-63
2023/06/03 16:19:12;;;;;;;5.50;3.47;;;;;;;-145.70;100.00;63560.63;5071383;28;20032;-64
2023/06/03 16:21:39;;;;;;;6.35;4.00;;;;;;;-145.70;100.00;63560.63;5049968;28;20028;-62
2023/06/03 16:24:08;;;;;;;6.90;3.80;;;;;;;-145.70;100.00;63560.63;5049810;28;20420;-63
2023/06/03 16:26:33;;;;;;;6.10;3.50;;;;;;;-145.70;100.00;63560.63;5040579;28;20035;-62
2023/06/03 16:29:01;;;;;;;5.50;3.40;;;;;;;-145.70;100.00;63560.63;5040886;28;20027;-62
2023/06/03 16:31:26;;;;;;;5.70;3.55;;;;;;;-145.70;100.00;63560.63;5060548;28;20507;-63
2023/06/03 16:33:57;;;;;;;6.15;3.72;;;;;;;-145.70;100.00;63560.63;5073066;28;20028;-64
2023/06/03 16:36:25;;;;;;;6.10;3.67;;;;;;;-145.70;100.00;63560.63;5074959;28;20020;-64
2023/06/03 16:38:50;;;;;;;11.68;4.75;;;;;;;-145.70;100.00;63560.63;5052635;28;20035;-61
2023/06/03 16:41:21;;;;;;;6.63;3.60;;;;;;;-145.70;100.00;63560.63;5063935;28;20741;-64
2023/06/03 16:43:46;;;;;;;6.22;3.50;;;;;;;-145.70;100.00;63560.63;5047079;28;20032;-61
2023/06/03 16:52:58;;;;;;;6.05;3.72;;;;;;;-145.70;100.00;63560.63;5075614;28;20092;-64
2023/06/03 16:55:28;;;;;;;6.53;3.97;;;;;;;-145.70;100.00;63560.63;5045560;28;20135;-64
2023/06/03 16:57:53;;;;;;;6.32;3.50;;;;;;;-145.70;100.00;63560.63;5061340;28;20020;-65
2023/06/03 17:00:21;;;;;;;6.13;4.07;;;;;;;-145.70;100.00;63560.63;5043249;28;20383;-65
2023/06/03 17:02:46;;;;;;;6.60;4.35;;;;;;;-145.70;100.00;63560.63;5058465;28;20040;-64
2023/06/03 17:05:12;;;;;;;8.30;4.28;;;;;;;-145.70;100.00;63560.63;5074779;28;20043;-63
2023/06/03 17:21:20;;;;;;;6.05;3.30;;;;;;;-145.70;100.00;63560.63;5044158;28;20024;-66
2023/06/03 17:23:47;;;;;;;6.63;4.03;;;;;;;-145.70;100.00;63560.63;5024735;28;20066;-64
2023/06/03 17:26:15;;;;;;;8.75;6.15;;;;;;;-145.70;100.00;63560.63;5046296;28;20077;-66
2023/06/03 17:28:41;;;;;;;33.95;25.50;;;;;;;-145.70;100.00;63560.63;5032371;28;20025;-67
2023/06/03 17:31:06;;;;;;;38.60;29.88;;;;;;;-145.70;100.00;63560.63;5029541;28;20489;-63
2023/06/03 17:33:34;;;;;;;18.55;13.75;;;;;;;-145.70;100.00;63560.63;5072882;28;20107;-65
2023/06/03 17:36:00;;;;;;;17.77;13.35;;;;;;;-145.70;100.00;63560.63;5034874;28;20025;-64
2023/06/03 17:38:28;;;;;;;38.80;26.92;;;;;;;-145.70;100.00;63560.63;5035303;28;20597;-66
2023/06/03 17:40:54;;;;;;;40.55;31.50;;;;;;;-145.70;100.00;63560.63;5071734;28;20760;-64
2023/06/03 17:43:19;;;;;;;30.48;24.75;;;;;;;-145.70;100.00;63560.63;5036524;28;20028;-64
2023/06/03 17:45:44;;;;;;;12.50;9.48;;;;;;;-145.70;100.00;63560.63;5069465;28;20042;-65
2023/06/03 17:48:10;;;;;;;6.00;3.50;;;;;;;-145.70;100.00;63560.63;5069090;28;20032;-64
2023/06/03 17:50:35;;;;;;;5.70;3.88;;;;;;;-145.70;100.00;63560.63;5024986;28;20032;-65
2023/06/03 17:53:03;;;;;;;5.50;3.50;;;;;;;-145.70;100.00;63560.63;5035508;28;20540;-65
2023/06/03 17:55:31;;;;;;;5.65;3.65;;;;;;;-145.70;100.00;63560.63;5076497;28;20035;-66
2023/06/03 17:57:56;;;;;;;5.28;3.17;;;;;;;-145.70;100.00;63560.63;5038870;28;20023;-65
2023/06/03 18:00:22;;;;;;;4.95;3.10;;;;;;;-145.70;100.00;63560.63;5055848;28;20020;-65
2023/06/03 18:02:48;;;;;;;5.30;3.15;;;;;;;-145.70;100.00;63560.63;5053031;28;20279;-64
2023/06/03 18:05:14;;;;;;;7.95;4.65;;;;;;;-145.70;100.00;63560.63;5001965;28;20096;-65
2023/06/03 18:07:42;;;;;;;10.70;6.47;;;;;;;-145.70;100.00;63560.63;5053641;28;20028;-67
2023/06/03 18:10:11;;;;;;;12.07;9.00;;;;;;;-145.70;100.00;63560.63;5048890;28;20503;-68
2023/06/03 18:12:43;;;;;;;6.97;4.83;;;;;;;-145.70;100.00;63560.63;5057476;28;20423;-66
2023/06/03 18:15:10;;;;;;;7.18;5.50;;;;;;;-145.70;100.00;63560.63;5057668;28;20393;-64
2023/06/03 18:17:37;;;;;;;7.30;3.83;;;;;;;-145.70;100.00;63560.63;5044225;28;20032;-66
2023/06/03 18:20:05;;;;;;;8.05;5.05;;;;;;;-145.70;100.00;63560.63;5060379;28;20052;-64
2023/06/03 18:22:31;;;;;;;6.85;3.78;;;;;;;-145.70;100.00;63560.63;5022871;28;20119;-65
2023/06/03 18:24:59;;;;;;;9.07;5.10;;;;;;;-145.70;100.00;63560.63;5066399;28;20122;-65
2023/06/03 18:27:24;;;;;;;8.38;5.22;;;;;;;-145.70;100.00;63560.63;5037562;28;20044;-66
2023/06/03 18:29:53;;;;;;;12.10;9.02;;;;;;;-145.70;100.00;63560.63;5073309;28;20027;-66
2023/06/03 18:32:21;;;;;;;20.15;14.18;;;;;;;-145.70;100.00;63560.63;5059404;28;20157;-64
2023/06/03 18:34:46;;;;;;;8.85;6.20;;;;;;;-145.70;100.00;63560.63;5054813;28;20020;-65
2023/06/03 18:37:12;;;;;;;21.02;14.90;;;;;;;-145.70;100.00;63560.63;5075713;28;20113;-63
2023/06/03 18:39:38;;;;;;;23.02;17.10;;;;;;;-145.70;100.00;63560.63;5055406;28;20032;-64
2023/06/03 18:42:03;;;;;;;9.38;5.60;;;;;;;-145.70;100.00;63560.63;5060563;28;20031;-64
2023/06/03 18:44:28;;;;;;;7.10;4.95;;;;;;;-145.70;100.00;63560.63;5055995;28;20016;-65
2023/06/03 18:46:54;;;;;;;7.93;4.78;;;;;;;-145.70;100.00;63560.63;5074663;28;20781;-64
2023/06/03 18:49:22;;;;;;;7.45;5.00;;;;;;;-145.70;100.00;63560.63;5057059;28;20032;-65
2023/06/03 18:51:49;;;;;;;7.13;4.80;;;;;;;-145.70;100.00;63560.63;5052721;28;20032;-64
2023/06/03 18:54:15;;;;;;;10.30;5.63;;;;;;;-145.70;100.00;63560.63;5058378;28;20198;-65
2023/06/03 18:56:41;;;;;;;8.52;4.95;;;;;;;-145.70;100.00;63560.63;5028468;28;20085;-63
2023/06/03 18:59:09;;;;;;;6.50;4.05;;;;;;;-145.70;100.00;63560.63;5053447;28;20028;-65
2023/06/03 19:01:36;;;;;;;8.20;4.30;;;;;;;-145.70;100.00;63560.63;5025284;28;20091;-65
2023/06/03 19:04:05;;;;;;;8.70;6.00;;;;;;;-145.70;100.00;63560.63;5055077;28;20165;-64
2023/06/03 19:06:37;;;;;;;6.47;4.20;;;;;;;-145.70;100.00;63560.63;5060692;28;20034;-65
2023/06/03 19:09:11;;;;;;;6.97;4.47;;;;;;;-145.70;100.00;63560.63;5052460;28;20016;-65
2023/06/03 19:11:37;;;;;;;7.65;4.47;;;;;;;-145.70;100.00;63560.63;4993261;28;20039;-64
2023/06/03 19:14:09;;;;;;;6.25;4.25;;;;;;;-145.70;100.00;63560.63;5052185;28;20020;-66
2023/06/03 19:16:41;;;;;;;7.60;3.90;;;;;;;-145.70;100.00;63560.63;5053277;28;20067;-65
2023/06/03 19:19:09;;;;;;;6.28;4.32;;;;;;;-145.70;100.00;63560.63;5055568;28;20012;-65
2023/06/03 19:21:36;;;;;;;6.00;4.00;;;;;;;-145.70;100.00;63560.63;5033976;28;20623;-65
2023/06/03 19:24:02;;;;;;;7.53;4.30;;;;;;;-145.70;100.00;63560.63;5052729;28;20573;-62
2023/06/03 19:26:28;;;;;;;6.88;4.30;;;;;;;-145.70;100.00;63560.63;5049449;28;20751;-65
2023/06/03 19:28:56;;;;;;;5.90;4.00;;;;;;;-145.70;100.00;63560.63;5033562;28;20047;-66
2023/06/03 19:31:22;;;;;;;6.38;4.00;;;;;;;-145.70;100.00;63560.63;5034978;28;20020;-64
2023/06/03 19:33:49;;;;;;;7.13;4.00;;;;;;;-145.70;100.00;63560.63;5046027;28;20027;-65
2023/06/03 19:36:14;;;;;;;7.00;4.18;;;;;;;-145.70;100.00;63560.63;5071049;28;20145;-65
2023/06/03 19:38:40;;;;;;;6.35;4.20;;;;;;;-145.70;100.00;63560.63;5041460;28;20441;-65
2023/06/03 19:41:06;;;;;;;6.35;4.10;;;;;;;-145.70;100.00;63560.63;5040888;28;20074;-65
2023/06/03 19:43:33;;;;;;;5.55;3.80;;;;;;;-145.70;100.00;63560.63;5026146;28;20036;-64
2023/06/03 19:46:00;;;;;;;5.68;3.80;;;;;;;-145.70;100.00;63560.63;5067801;28;20032;-64
2023/06/03 19:48:27;;;;;;;5.82;3.92;;;;;;;-145.70;100.00;63560.63;5050200;28;20649;-65
2023/06/03 19:50:53;;;;;;;7.35;4.25;;;;;;;-145.70;100.00;63560.63;5044970;28;20019;-66
2023/06/03 19:53:19;;;;;;;6.70;4.25;;;;;;;-145.70;100.00;63560.63;5035601;28;20029;-65
2023/06/03 19:55:45;;;;;;;7.80;4.05;;;;;;;-145.70;100.00;63560.63;5056037;28;20028;-65
2023/06/03 19:58:15;;;;;;;9.90;5.55;;;;;;;-145.70;100.00;63560.63;5058012;28;20032;-65
2023/06/03 20:00:43;;;;;;;6.38;4.43;;;;;;;-145.70;100.00;63560.63;5038070;28;20024;-66
2023/06/03 20:03:08;;;;;;;6.97;4.05;;;;;;;-145.70;100.00;63560.63;5056206;28;20046;-64
2023/06/03 20:05:34;;;;;;;6.32;4.25;;;;;;;-145.70;100.00;63560.63;5060250;28;20374;-65
2023/06/03 20:08:00;;;;;;;8.20;4.47;;;;;;;-145.70;100.00;63560.63;5056350;28;20036;-65
2023/06/03 20:10:25;;;;;;;6.55;4.30;;;;;;;-145.70;100.00;63560.63;5056423;28;20020;-65
2023/06/03 20:12:53;;;;;;;6.78;4.22;;;;;;;-145.70;100.00;63560.63;5055698;28;20500;-66
2023/06/03 20:15:19;;;;;;;6.30;4.18;;;;;;;-145.70;100.00;63560.63;5051367;28;20036;-67
2023/06/03 20:17:46;;;;;;;5.95;3.97;;;;;;;-145.70;100.00;63560.63;5032272;28;20032;-65
2023/06/03 20:20:16;;;;;;;6.78;4.30;;;;;;;-145.70;100.00;63560.63;5059900;28;20092;-64
2023/06/03 20:22:44;;;;;;;;;;;;;;;-145.70;100.00;63560.63;5053262;28;20055;-65
2023/06/03 20:25:12;;;;;;;6.60;4.18;;;;;;;-145.70;100.00;63560.63;5035591;28;20304;-64
2023/06/03 20:27:37;;;;;;;6.47;3.97;;;;;;;-145.70;100.00;63560.63;5054681;28;20109;-65
2023/06/03 20:30:04;;;;;;;6.82;4.35;;;;;;;-145.70;100.00;63560.63;5036668;28;20032;-65
2023/06/03 20:32:29;;;;;;;7.68;4.05;;;;;;;-145.70;100.00;63560.63;5038649;28;20020;-66
2023/06/03 20:34:55;;;;;;;6.13;4.20;;;;;;;-145.70;100.00;63560.63;5052725;28;20035;-64
2023/06/03 20:37:23;;;;;;;7.07;4.05;;;;;;;-145.70;100.00;63560.63;5061584;28;20024;-64
2023/06/03 20:39:52;;;;;;;8.65;4.38;;;;;;;-145.70;100.00;63560.63;5038407;28;20724;-66
2023/06/03 20:42:17;;;;;;;9.15;3.97;;;;;;;-145.70;100.00;63560.63;5042823;28;20432;-65
2023/06/03 20:44:43;;;;;;;7.07;3.85;;;;;;;-145.70;100.00;63560.63;5070350;28;20027;-65
2023/06/03 20:47:15;;;;;;;6.55;4.15;;;;;;;-145.70;100.00;63560.63;5039268;28;20475;-66
2023/06/03 20:49:41;;;;;;;6.20;4.00;;;;;;;-145.70;100.00;63560.63;5026926;28;20039;-64
2023/06/03 20:52:06;;;;;;;5.72;3.83;;;;;;;-145.70;100.00;63560.63;5050055;28;20043;-65
2023/06/03 20:54:33;;;;;;;7.20;4.05;;;;;;;-145.70;100.00;63560.63;5052626;28;20039;-64
2023/06/03 20:56:58;;;;;;;5.85;3.70;;;;;;;-145.70;100.00;63560.63;5075290;28;20039;-64
2023/06/03 20:59:24;;;;;;;6.80;4.47;;;;;;;-145.70;100.00;63560.63;5053551;28;20060;-65
2023/06/03 21:01:49;;;;;;;6.20;4.00;;;;;;;-145.70;100.00;63560.63;5071300;28;20233;-65
2023/06/03 21:04:15;;;;;;;6.78;4.20;;;;;;;-145.70;100.00;63560.63;5034145;28;20043;-65
2023/06/03 21:06:43;;;;;;;6.93;4.30;;;;;;;-145.70;100.00;63560.63;5009484;28;20030;-65
2023/06/03 21:09:08;;;;;;;7.30;4.38;;;;;;;-145.70;100.00;63560.63;5052036;28;20155;-65
2023/06/03 21:11:34;;;;;;;7.70;4.70;;;;;;;-145.70;100.00;63560.63;5074199;28;20186;-65
2023/06/03 21:13:59;;;;;;;6.65;4.55;;;;;;;-145.70;100.00;63560.63;5039025;28;20020;-64
2023/06/03 21:16:27;;;;;;;6.93;4.50;;;;;;;-145.70;100.00;63560.63;5071729;28;20550;-65
2023/06/03 21:18:55;;;;;;;6.68;4.38;;;;;;;-145.70;100.00;63560.63;5034979;28;20068;-64
2023/06/03 21:21:20;;;;;;;7.97;4.95;;;;;;;-145.70;100.00;63560.63;5051739;28;20028;-66
2023/06/03 21:23:48;;;;;;;8.77;4.30;;;;;;;-145.70;100.00;63560.63;5017342;28;20024;-65
2023/06/03 21:26:13;;;;;;;6.93;4.53;;;;;;;-145.70;100.00;63560.63;5051761;28;20031;-65
2023/06/03 21:28:39;;;;;;;7.65;4.13;;;;;;;-145.70;100.00;63560.63;5073303;28;20036;-65
2023/06/03 21:31:04;;;;;;;6.75;4.30;;;;;;;-145.70;100.00;63560.63;5044183;28;20248;-65
2023/06/03 21:33:30;;;;;;;6.40;4.22;;;;;;;-145.70;100.00;63560.63;5074285;28;20089;-65
2023/06/03 21:35:55;;;;;;;7.07;4.45;;;;;;;-145.70;100.00;63560.63;5054125;28;20057;-66
2023/06/03 21:38:24;;;;;;;6.20;4.10;;;;;;;-145.70;100.00;63560.63;5022321;28;20032;-64
2023/06/03 21:40:49;;;;;;;6.13;4.00;;;;;;;-145.70;100.00;63560.63;5054306;28;20028;-65
2023/06/03 21:43:15;;;;;;;7.18;4.28;;;;;;;-145.70;100.00;63560.63;5046583;28;20666;-65
2023/06/03 21:45:40;;;;;;;6.43;4.30;;;;;;;-145.70;100.00;63560.63;5045024;28;20039;-66
2023/06/03 21:48:05;;;;;;;6.65;3.72;;;;;;;-145.70;100.00;63560.63;5057721;28;20035;-64
2023/06/03 21:50:31;;;;;;;6.40;3.05;;;;;;;-145.70;100.00;63560.63;5038606;28;20028;-63
2023/06/03 21:52:59;;;;;;;5.65;3.10;;;;;;;-145.70;100.00;63560.63;5049639;28;20028;-64
2023/06/03 21:55:25;;;;;;;5.53;3.07;;;;;;;-145.70;100.00;63560.63;5053487;28;20046;-65
2023/06/03 21:57:53;;;;;;;5.72;2.58;;;;;;;-145.70;100.00;63560.63;5035984;28;20835;-65
2023/06/03 22:00:21;;;;;;;5.20;2.90;;;;;;;-145.70;100.00;63560.63;5052742;28;20020;-67
2023/06/03 22:02:47;;;;;;;4.60;2.45;;;;;;;-145.70;100.00;63560.63;5074994;28;20047;-65
2023/06/03 22:05:13;;;;;;;4.82;2.58;;;;;;;-145.70;100.00;63560.63;5042504;28;20041;-66
2023/06/03 22:07:38;;;;;;;5.60;2.60;;;;;;;-145.70;100.00;63560.63;5043730;28;20386;-65
2023/06/03 22:10:09;;;;;;;7.65;3.20;;;;;;;-145.70;100.00;63560.63;5053031;28;20036;-65
2023/06/03 22:12:34;;;;;;;5.75;2.83;;;;;;;-145.70;100.00;63560.63;5036698;28;20024;-62
2023/06/03 22:15:02;;;;;;;6.25;3.10;;;;;;;-145.70;100.00;63560.63;5050731;28;20847;-66
2023/06/03 22:17:28;;;;;;;5.28;2.80;;;;;;;-145.70;100.00;63560.63;5065369;28;20070;-65
2023/06/03 22:19:55;;;;;;;4.53;2.50;;;;;;;-145.70;100.00;63560.63;5055812;28;20122;-66
2023/06/03 22:22:21;;;;;;;4.97;2.42;;;;;;;-145.70;100.00;63560.63;5041546;28;20429;-65
2023/06/03 22:24:46;;;;;;;4.82;2.42;;;;;;;-145.70;100.00;63560.63;5070422;28;20409;-65
2023/06/03 22:27:15;;;;;;;5.13;2.35;;;;;;;-145.70;100.00;63560.63;5050514;28;20096;-65
2023/06/03 22:29:43;;;;;;;4.57;2.20;;;;;;;-145.70;100.00;63560.63;5054500;28;20691;-65
2023/06/03 22:32:11;;;;;;;5.47;2.20;;;;;;;-145.70;100.00;63560.63;5032335;28;20032;-66
2023/06/03 22:34:37;;;;;;;4.70;2.28;;;;;;;-145.70;100.00;63560.63;5047237;28;20036;-65
2023/06/03 22:37:02;;;;;;;5.32;2.60;;;;;;;-145.70;100.00;63560.63;5050457;28;20071;-65
2023/06/03 22:39:30;;;;;;;5.28;2.35;;;;;;;-145.70;100.00;63560.63;5010242;28;20036;-65
2023/06/03 22:41:55;;;;;;;5.95;2.40;;;;;;;-145.70;100.00;63560.63;5053856;28;20031;-66
2023/06/03 22:44:26;;;;;;;5.10;2.60;;;;;;;-145.70;100.00;63560.63;5042069;28;20040;-65
2023/06/03 22:46:51;;;;;;;5.95;2.85;;;;;;;-145.70;100.00;63560.63;5038856;28;20383;-66
2023/06/03 22:49:17;;;;;;;7.10;2.90;;;;;;;-145.70;100.00;63560.63;5072686;28;20386;-65
2023/06/03 22:51:42;;;;;;;6.20;3.00;;;;;;;-145.70;100.00;63560.63;5053320;28;20059;-65
2023/06/03 22:54:07;;;;;;;5.32;2.83;;;;;;;-145.70;100.00;63560.63;5042354;28;20024;-66
2023/06/03 22:56:35;;;;;;;4.82;2.50;;;;;;;-145.70;100.00;63560.63;5054447;28;20127;-66
2023/06/03 22:59:00;;;;;;;4.80;2.45;;;;;;;-145.70;100.00;63560.63;5035225;28;20043;-65
2023/06/03 23:01:26;;;;;;;4.80;2.60;;;;;;;-145.70;100.00;63560.63;5061408;28;20024;-64
2023/06/03 23:03:51;;;;;;;7.47;2.70;;;;;;;-145.70;100.00;63560.63;5060445;28;20039;-65
2023/06/03 23:06:23;;;;;;;5.30;2.25;;;;;;;-145.70;100.00;63560.63;5043039;28;20028;-65
2023/06/03 23:08:48;;;;;;;5.20;2.67;;;;;;;-145.70;100.00;63560.63;5061297;28;20012;-65
2023/06/03 23:11:13;;;;;;;4.75;2.55;;;;;;;-145.70;100.00;63560.63;5043479;28;20759;-66
2023/06/03 23:13:40;;;;;;;6.03;2.30;;;;;;;-145.70;100.00;63560.63;5056992;28;20116;-64
2023/06/03 23:16:06;;;;;;;4.50;2.22;;;;;;;-145.70;100.00;63560.63;5081899;28;20028;-65
2023/06/03 23:18:32;;;;;;;5.40;2.20;;;;;;;-145.70;100.00;63560.63;5053251;28;20036;-65
2023/06/03 23:20:57;;;;;;;5.20;2.28;;;;;;;-145.70;100.00;63560.63;5037481;28;20475;-64
2023/06/03 23:23:23;;;;;;;4.65;2.40;;;;;;;-145.70;100.00;63560.63;5029224;28;20465;-65
2023/06/03 23:25:48;;;;;;;4.40;2.20;;;;;;;-145.70;100.00;63560.63;5048622;28;20039;-64
2023/06/03 23:28:15;;;;;;;6.07;2.50;;;;;;;-145.70;100.00;63560.63;5034275;28;20020;-65
2023/06/03 23:30:41;;;;;;;6.18;2.45;;;;;;;-145.70;100.00;63560.63;5044648;28;20039;-66
2023/06/03 23:33:08;;;;;;;4.55;2.30;;;;;;;-145.70;100.00;63560.63;5049074;28;20027;-66
2023/06/03 23:35:35;;;;;;;6.80;2.30;;;;;;;-145.70;100.00;63560.63;5032440;28;20032;-66
2023/06/03 23:38:01;;;;;;;5.10;2.22;;;;;;;-145.70;100.00;63560.63;5045066;28;21604;-65
2023/06/03 23:40:29;;;;;;;6.82;2.30;;;;;;;-145.70;100.00;63560.63;5047535;28;20062;-64
2023/06/03 23:42:55;;;;;;;5.30;2.00;;;;;;;-145.70;100.00;63560.63;5045713;28;20123;-64
2023/06/03 23:45:21;;;;;;;5.95;2.25;;;;;;;-145.70;100.00;63560.63;5045666;28;20028;-65
2023/06/03 23:47:46;;;;;;;4.18;2.17;;;;;;;-145.70;100.00;63560.63;5047864;28;20093;-65
2023/06/03 23:50:14;;;;;;;5.72;2.50;;;;;;;-145.70;100.00;63560.63;5043740;28;20027;-65
2023/06/03 23:52:39;;;;;;;4.72;1.92;;;;;;;-145.70;100.00;63560.63;5063199;28;20031;-65
2023/06/03 23:55:11;;;;;;;7.25;2.25;;;;;;;-145.70;100.00;63560.63;5042036;28;20039;-66
2023/06/03 23:57:36;;;;;;;5.38;2.40;;;;;;;-145.70;100.00;63560.63;5030349;28;20162;-66
